createdAt,value
2023-05-09T00:03:55.382Z,11.00
2023-05-09T00:13:56.912Z,10.95
2023-05-09T00:23:58.421Z,11.50
2023-05-09T00:33:59.987Z,11.17
2023-05-09T00:44:01.532Z,13.23
2023-05-09T00:54:03.250Z,12.63
2023-05-09T01:04:05.200Z,12.80
2023-05-09T01:14:23.681Z,12.60
2023-05-09T01:24:43.375Z,11.73
2023-05-09T01:34:47.170Z,13.80
2023-05-09T01:44:49.737Z,13.80
2023-05-09T01:54:51.706Z,12.43
2023-05-09T02:04:56.025Z,12.30
2023-05-09T02:14:57.510Z,12.00
2023-05-09T02:24:59.005Z,12.07
2023-05-09T02:35:01.920Z,12.37
2023-05-09T02:45:03.633Z,13.20
2023-05-09T02:55:05.800Z,12.10
2023-05-09T03:05:07.632Z,12.57
2023-05-09T03:15:09.536Z,12.70
2023-05-09T03:25:11.024Z,11.57
2023-05-09T03:35:12.708Z,9.07
2023-05-09T03:45:14.517Z,7.33
2023-05-09T03:55:16.359Z,6.03
2023-05-09T04:05:18.521Z,6.30
2023-05-09T04:15:20.131Z,5.50
2023-05-09T04:25:21.766Z,6.22
2023-05-09T04:35:23.416Z,6.47
2023-05-09T04:45:25.045Z,7.13
2023-05-09T04:55:26.511Z,6.60
2023-05-09T05:05:28.196Z,7.07
2023-05-09T05:15:29.846Z,6.30
2023-05-09T05:25:31.353Z,6.83
2023-05-09T05:35:32.903Z,6.63
2023-05-09T05:45:34.485Z,7.33
2023-05-09T05:55:35.949Z,7.90
2023-05-09T06:05:37.405Z,8.05
2023-05-09T06:15:38.897Z,7.60
2023-05-09T06:25:40.509Z,8.13
2023-05-09T06:35:42.202Z,8.70
2023-05-09T06:45:43.789Z,8.53
2023-05-09T06:55:45.420Z,8.65
2023-05-09T07:05:46.984Z,8.03
2023-05-09T07:15:48.550Z,8.83
2023-05-09T07:25:55.424Z,8.60
2023-05-09T07:35:59.160Z,9.20
2023-05-09T07:46:00.815Z,8.48
2023-05-09T07:56:02.404Z,9.47
2023-05-09T08:06:03.904Z,8.13
2023-05-09T08:16:08.508Z,8.70
2023-05-09T08:26:10.057Z,9.23
2023-05-09T08:36:11.547Z,10.63
2023-05-09T08:46:15.058Z,15.03
2023-05-09T08:56:17.108Z,12.77
2023-05-09T09:06:19.573Z,11.47
2023-05-09T09:16:23.048Z,11.10
2023-05-09T09:26:24.609Z,11.98
2023-05-09T09:36:27.242Z,11.30
2023-05-09T09:46:28.859Z,11.97
2023-05-09T09:56:47.115Z,9.83
2023-05-09T10:07:03.164Z,8.87
2023-05-09T10:17:05.833Z,8.02
2023-05-09T10:27:10.490Z,9.30
2023-05-09T10:37:12.551Z,8.00
2023-05-09T10:47:14.532Z,9.30
2023-05-09T10:57:19.574Z,9.13
2023-05-09T11:07:26.451Z,9.10
2023-05-09T11:17:29.734Z,9.83
2023-05-09T11:27:41.856Z,8.60
2023-05-09T11:37:53.412Z,7.67
2023-05-09T11:47:55.210Z,7.93
2023-05-09T11:57:56.801Z,7.35
2023-05-09T12:08:03.019Z,7.10
2023-05-09T12:18:06.306Z,7.50
2023-05-09T12:28:10.869Z,7.50
2023-05-09T12:38:24.223Z,8.03
2023-05-09T12:48:25.845Z,8.15
2023-05-09T12:58:33.897Z,8.70
2023-05-09T13:08:35.352Z,7.00
2023-05-09T13:18:36.921Z,8.03
2023-05-09T13:28:38.400Z,5.67
2023-05-09T13:38:40.089Z,6.05
2023-05-09T13:48:41.672Z,5.90
2023-05-09T13:58:43.211Z,5.77
2023-05-09T14:08:47.572Z,7.03
2023-05-09T14:18:49.051Z,6.07
2023-05-09T14:28:55.622Z,6.07
2023-05-09T14:38:57.110Z,6.87
2023-05-09T14:48:58.653Z,7.13
2023-05-09T14:59:00.190Z,7.20
2023-05-09T15:09:01.737Z,6.30
2023-05-09T15:19:05.134Z,6.55
2023-05-09T15:29:07.287Z,7.27
2023-05-09T15:39:09.305Z,7.70
2023-05-09T15:49:11.159Z,8.80
2023-05-09T15:59:13.523Z,9.07
2023-05-09T16:09:15.367Z,8.85
2023-05-09T16:19:17.251Z,8.30
2023-05-09T16:29:19.343Z,8.20
2023-05-09T16:39:21.232Z,7.53
2023-05-09T16:49:23.079Z,7.90
2023-05-09T16:59:24.893Z,10.52
2023-05-09T17:09:26.437Z,15.73
2023-05-09T17:19:27.948Z,18.67
2023-05-09T17:29:29.744Z,15.73
2023-05-09T17:39:32.197Z,13.80
2023-05-09T17:49:33.655Z,12.35
2023-05-09T17:59:35.113Z,11.93
2023-05-09T18:09:36.576Z,11.40
2023-05-09T18:19:38.072Z,10.30
2023-05-09T18:29:39.564Z,10.43
2023-05-09T18:39:41.048Z,10.32
2023-05-09T18:49:42.647Z,10.30
2023-05-09T18:59:44.189Z,9.10
2023-05-09T19:09:45.789Z,9.17
2023-05-09T19:19:47.307Z,8.73
2023-05-09T19:29:49.944Z,9.52
2023-05-09T19:39:51.624Z,7.77
2023-05-09T19:49:53.374Z,7.50
2023-05-09T19:59:56.988Z,7.97
2023-05-09T20:09:58.480Z,7.90
2023-05-09T20:20:00.341Z,8.75
2023-05-09T20:30:03.490Z,8.63
2023-05-09T20:40:05.811Z,7.47
2023-05-09T20:50:07.889Z,8.03
2023-05-09T21:00:09.705Z,8.20
2023-05-09T21:10:11.179Z,7.85
2023-05-09T21:20:14.472Z,7.37
2023-05-09T21:30:16.460Z,7.17
2023-05-09T21:40:18.562Z,6.13
2023-05-09T21:50:20.148Z,6.43
2023-05-09T22:00:21.659Z,5.93
2023-05-09T22:10:23.157Z,5.67
2023-05-09T22:20:24.689Z,5.57
2023-05-09T22:30:26.266Z,6.40
2023-05-09T22:40:27.753Z,7.43
2023-05-09T22:50:29.285Z,5.80
2023-05-09T23:00:31.947Z,5.90
2023-05-09T23:10:33.641Z,6.63
2023-05-09T23:20:36.023Z,6.17
2023-05-09T23:30:37.505Z,5.60
2023-05-09T23:40:39.118Z,6.28
2023-05-09T23:50:40.943Z,6.50
